Hauptseite
METAR-TAF:

METAR-TAF

Flughäfen :

Lydd, England

Breite: 50-57N, Länge: 000-56E, Höhe: 3 m

Beobachtung

Neuester Wetterbericht von vor 17 Minuten, um 06:50 UTC
Wind 3 kt aus unterschiedlichen Richtungen
Temperatur 17°C
Luftfeuchtigkeit 82%
Luftdruck 1019 hPa
Sichtweite 10 km oder mehr

METAR: EGMD 180650Z AUTO VRB03KT 9999 NCD 17/14 Q1019

Zeit: 08:07 (07:07 UTC)

Prognose

Neuester Wetterbericht von vor 2 Stunden und 12 Minuten, um 04:55 UTC
Gültige Prognose vom 18 um 06 UTC bis 18 um 15 UTC
Wind 4 kt aus West
Sichtweite 10 km oder mehr
Leicht bewölkt in der Höhe von 4500 ft

TAF: EGMD 180455Z 1806/1815 27004KT 9999 FEW045

Wetterbeobachtungen und Prognosen von mehr als 4000 Flughäfen (METAR und TAF Bericht).

Die verfügbaren Stationen werden durch gelbe und rote Markierungen auf der Karte dargestellt.

Führen Sie die Maus auf sie, um den Namen der Station zu sehen.

Darauf klicken, um die Beobachtung von Wetterbeobachtungen und Prognosen zu sehen.

Um die Karte zu ändern : klicken Sie auf den grünen Tasten mit einem schwarzen Kreuz Zum Vergrößern, auf den grünen Button mit einem Gedankenstrich zu verkleinern, oder auf die grünen Pfeile für benachbarte Karten.


METAR-TAF: